createdAt,value
2022-07-29T00:04:43.721Z,30.58
2022-07-29T00:09:51.820Z,30.51
2022-07-29T00:14:55.753Z,30.43
2022-07-29T00:19:57.402Z,30.47
2022-07-29T00:24:59.195Z,30.50
2022-07-29T00:30:00.880Z,30.56
2022-07-29T00:35:21.238Z,30.77
2022-07-29T00:40:23.618Z,30.58
2022-07-29T00:45:25.587Z,30.34
2022-07-29T00:50:28.019Z,30.35
2022-07-29T00:55:30.091Z,30.63
2022-07-29T01:00:31.926Z,30.54
2022-07-29T01:05:50.666Z,30.78
2022-07-29T01:10:55.113Z,30.70
2022-07-29T01:16:03.967Z,31.04
2022-07-29T01:21:14.609Z,30.88
2022-07-29T01:26:21.959Z,30.89
2022-07-29T01:31:32.831Z,30.94
2022-07-29T01:36:44.517Z,31.28
2022-07-29T01:42:02.591Z,30.92
2022-07-29T01:47:12.587Z,31.03
2022-07-29T01:52:24.642Z,31.41
2022-07-29T01:57:30.218Z,31.35
2022-07-29T02:02:36.067Z,31.12
2022-07-29T02:07:38.881Z,31.42
2022-07-29T02:12:43.579Z,31.28
2022-07-29T02:18:02.158Z,31.52
2022-07-29T02:23:04.540Z,31.31
2022-07-29T02:28:09.289Z,31.71
2022-07-29T02:33:14.508Z,31.59
2022-07-29T02:38:36.392Z,31.69
2022-07-29T02:43:38.158Z,31.70
2022-07-29T02:48:53.005Z,31.97
2022-07-29T02:53:57.741Z,31.87
2022-07-29T02:59:04.063Z,32.21
2022-07-29T03:04:06.434Z,32.15
2022-07-29T03:09:13.231Z,32.67
2022-07-29T03:14:17.816Z,32.65
2022-07-29T03:19:21.408Z,32.69
2022-07-29T03:24:34.266Z,32.59
2022-07-29T03:29:36.022Z,32.78
2022-07-29T03:34:38.808Z,32.66
2022-07-29T03:39:42.460Z,32.99
2022-07-29T03:44:48.577Z,32.74
2022-07-29T03:49:53.509Z,32.91
2022-07-29T03:54:55.282Z,32.88
2022-07-29T03:59:57.742Z,32.91
2022-07-29T04:04:59.911Z,32.97
2022-07-29T04:10:01.630Z,32.91
2022-07-29T04:15:07.016Z,33.03
2022-07-29T04:20:09.491Z,33.04
2022-07-29T04:25:11.256Z,33.30
2022-07-29T04:30:13.352Z,33.32
2022-07-29T04:35:15.068Z,33.38
2022-07-29T04:40:16.846Z,33.81
2022-07-29T04:45:22.512Z,33.78
2022-07-29T04:50:24.698Z,33.70
2022-07-29T04:55:26.511Z,33.79
2022-07-29T05:00:33.250Z,34.16
2022-07-29T05:05:35.452Z,34.25
2022-07-29T05:10:39.049Z,34.15
2022-07-29T05:15:40.852Z,34.40
2022-07-29T05:20:42.648Z,34.37
2022-07-29T05:25:45.002Z,34.50
2022-07-29T05:30:46.917Z,34.45
2022-07-29T05:35:48.591Z,34.53
2022-07-29T05:40:50.353Z,34.81
2022-07-29T05:45:52.004Z,34.50
2022-07-29T05:50:54.428Z,34.55
2022-07-29T05:55:56.033Z,34.61
2022-07-29T06:01:01.740Z,34.93
2022-07-29T06:06:03.728Z,35.24
2022-07-29T06:11:05.989Z,36.16
2022-07-29T06:16:07.976Z,36.61
2022-07-29T06:21:10.913Z,37.17
2022-07-29T06:26:12.626Z,37.45
2022-07-29T06:31:14.429Z,37.75
2022-07-29T06:36:16.568Z,37.70
2022-07-29T06:41:19.449Z,36.75
2022-07-29T06:46:22.470Z,36.27
2022-07-29T06:51:24.375Z,36.16
2022-07-29T06:56:26.358Z,36.03
2022-07-29T07:01:28.010Z,35.89
2022-07-29T07:06:29.656Z,36.66
2022-07-29T07:11:31.626Z,36.97
2022-07-29T07:16:33.672Z,37.28
2022-07-29T07:21:41.541Z,37.09
2022-07-29T07:26:43.125Z,36.98
2022-07-29T07:31:44.772Z,36.40
2022-07-29T07:36:46.421Z,36.27
2022-07-29T07:41:48.301Z,36.29
2022-07-29T07:46:50.078Z,36.23
2022-07-29T07:51:53.519Z,36.09
2022-07-29T07:56:55.533Z,35.94
2022-07-29T08:01:57.768Z,36.57
2022-07-29T08:07:00.550Z,36.24
2022-07-29T08:12:04.951Z,36.31
2022-07-29T08:17:07.543Z,36.30
2022-07-29T08:22:09.200Z,35.87
2022-07-29T08:27:33.360Z,35.80
2022-07-29T08:32:52.560Z,35.54
2022-07-29T08:37:55.036Z,35.36
2022-07-29T08:42:56.686Z,35.68
2022-07-29T08:47:58.483Z,35.66
2022-07-29T08:53:00.764Z,35.58
2022-07-29T08:58:02.971Z,35.02
2022-07-29T09:03:05.928Z,35.62
2022-07-29T09:08:07.961Z,35.62
2022-07-29T09:13:10.178Z,35.27
2022-07-29T09:18:20.473Z,34.78
2022-07-29T09:23:32.492Z,34.68
2022-07-29T09:28:34.058Z,35.08
2022-07-29T09:33:36.669Z,34.32
2022-07-29T09:38:38.770Z,34.51
2022-07-29T09:43:41.557Z,34.19
2022-07-29T09:48:43.363Z,33.65
2022-07-29T09:53:44.997Z,33.83
2022-07-29T09:58:46.643Z,33.22
2022-07-29T10:03:53.069Z,33.12
2022-07-29T10:09:07.613Z,32.88
2022-07-29T10:14:09.488Z,32.90
2022-07-29T10:19:11.412Z,32.50
2022-07-29T10:24:14.866Z,32.47
2022-07-29T10:29:16.896Z,32.41
2022-07-29T10:34:31.706Z,31.99
2022-07-29T10:40:30.737Z,32.00
2022-07-29T10:45:32.565Z,30.98
2022-07-29T10:51:01.474Z,31.01
2022-07-29T10:56:23.539Z,30.98
2022-07-29T11:01:37.062Z,31.12
2022-07-29T11:07:13.737Z,30.71
2022-07-29T11:12:43.313Z,30.89
2022-07-29T11:18:01.441Z,30.40
2022-07-29T11:23:19.638Z,30.47
2022-07-29T11:28:25.495Z,30.13
2022-07-29T11:33:54.431Z,30.46
2022-07-29T11:39:37.204Z,30.26
2022-07-29T11:44:57.676Z,29.93
2022-07-29T11:50:02.225Z,29.58
2022-07-29T11:55:09.872Z,29.61
2022-07-29T12:00:14.666Z,30.01
2022-07-29T12:05:39.698Z,29.53
2022-07-29T12:10:51.739Z,29.53
2022-07-29T12:15:55.845Z,29.52
2022-07-29T12:21:06.225Z,29.68
2022-07-29T12:26:10.931Z,29.44
2022-07-29T12:31:44.101Z,29.58
2022-07-29T12:36:47.421Z,29.69
2022-07-29T12:41:52.928Z,29.49
2022-07-29T12:47:08.546Z,29.79
2022-07-29T12:52:26.059Z,29.87
2022-07-29T12:57:28.451Z,30.35
2022-07-29T13:02:31.629Z,31.02
2022-07-29T13:07:54.690Z,31.73
2022-07-29T13:13:11.174Z,32.63
2022-07-29T13:18:29.929Z,32.80
2022-07-29T13:23:31.518Z,33.42
2022-07-29T13:28:40.891Z,33.68
2022-07-29T13:33:45.988Z,34.47
2022-07-29T13:38:47.579Z,34.47
2022-07-29T13:43:50.099Z,34.58
2022-07-29T13:48:52.020Z,33.80
2022-07-29T13:53:57.614Z,34.22
2022-07-29T13:59:08.289Z,34.07
2022-07-29T14:04:11.248Z,33.95
2022-07-29T14:09:17.781Z,34.20
2022-07-29T14:14:20.506Z,34.32
2022-07-29T14:19:23.379Z,34.96
2022-07-29T14:24:25.576Z,34.68
2022-07-29T14:29:37.213Z,34.17
2022-07-29T14:34:40.569Z,34.15
2022-07-29T14:39:43.217Z,34.52
2022-07-29T14:44:45.243Z,34.33
2022-07-29T14:49:51.523Z,34.12
2022-07-29T14:54:53.392Z,33.66
2022-07-29T14:59:55.718Z,33.64
2022-07-29T15:04:57.685Z,33.62
2022-07-29T15:09:59.774Z,33.77
2022-07-29T15:15:01.617Z,33.17
2022-07-29T15:20:05.780Z,33.28
2022-07-29T15:25:07.807Z,34.45
2022-07-29T15:30:10.522Z,34.36
2022-07-29T15:35:29.728Z,34.16
2022-07-29T15:40:31.739Z,33.86
2022-07-29T15:45:40.992Z,33.49
2022-07-29T15:50:42.842Z,33.21
2022-07-29T15:55:48.807Z,32.90
2022-07-29T16:00:50.628Z,32.15
2022-07-29T16:05:52.406Z,32.06
2022-07-29T16:10:54.031Z,32.43
2022-07-29T16:16:02.091Z,32.37
2022-07-29T16:21:04.854Z,32.73
2022-07-29T16:26:07.066Z,32.70
2022-07-29T16:31:09.323Z,32.61
2022-07-29T16:36:11.111Z,32.41
2022-07-29T16:41:15.143Z,32.51
2022-07-29T16:46:18.780Z,32.34
2022-07-29T16:51:27.844Z,32.54
2022-07-29T16:56:34.478Z,32.38
2022-07-29T17:01:39.912Z,32.38
2022-07-29T17:06:42.518Z,32.47
2022-07-29T17:11:52.882Z,32.67
2022-07-29T17:17:01.370Z,33.54
2022-07-29T17:22:11.757Z,34.25
2022-07-29T17:27:22.682Z,34.73
2022-07-29T17:32:24.888Z,35.25
2022-07-29T17:37:28.845Z,35.55
2022-07-29T17:42:30.639Z,35.49
2022-07-29T17:47:40.402Z,35.51
2022-07-29T17:52:42.456Z,36.15
2022-07-29T17:57:44.111Z,36.33
2022-07-29T18:02:46.148Z,36.21
2022-07-29T18:07:47.762Z,36.28
2022-07-29T18:12:49.451Z,38.49
2022-07-29T18:17:56.725Z,39.38
2022-07-29T18:23:01.186Z,39.22
2022-07-29T18:28:08.847Z,39.71
2022-07-29T18:33:22.009Z,39.61
2022-07-29T18:38:24.012Z,40.01
2022-07-29T18:43:43.171Z,40.22
2022-07-29T18:48:53.629Z,40.69
2022-07-29T18:53:59.425Z,40.35
2022-07-29T18:59:04.925Z,40.46
2022-07-29T19:04:06.429Z,40.39
2022-07-29T19:09:15.558Z,40.31
2022-07-29T19:14:19.258Z,40.00
2022-07-29T19:19:23.867Z,39.95
2022-07-29T19:24:25.390Z,39.95
2022-07-29T19:29:27.487Z,39.62
2022-07-29T19:34:31.293Z,39.74
2022-07-29T19:39:35.267Z,39.60
2022-07-29T19:44:54.583Z,39.56
2022-07-29T19:49:56.231Z,39.78
2022-07-29T19:55:07.608Z,39.72
2022-07-29T20:00:11.611Z,39.76
2022-07-29T20:05:13.292Z,39.59
2022-07-29T20:10:20.693Z,39.45
2022-07-29T20:15:26.877Z,39.83
2022-07-29T20:20:29.916Z,40.00
2022-07-29T20:25:31.542Z,40.40
2022-07-29T20:30:38.584Z,40.85
2022-07-29T20:35:40.951Z,40.94
2022-07-29T20:40:42.570Z,41.23
2022-07-29T20:45:46.757Z,41.20
2022-07-29T20:50:49.942Z,41.72
2022-07-29T20:55:51.606Z,41.81
2022-07-29T21:00:53.155Z,42.50
2022-07-29T21:05:57.274Z,42.80
2022-07-29T21:10:58.860Z,43.03
2022-07-29T21:16:14.835Z,43.53
2022-07-29T21:21:20.220Z,43.61
2022-07-29T21:26:24.188Z,44.12
2022-07-29T21:31:29.695Z,44.44
2022-07-29T21:36:48.277Z,44.50
2022-07-29T21:42:07.929Z,44.67
2022-07-29T21:47:11.946Z,45.26
2022-07-29T21:52:18.584Z,45.36
2022-07-29T21:57:26.547Z,45.40
2022-07-29T22:02:30.735Z,45.25
2022-07-29T22:07:54.711Z,45.87
2022-07-29T22:12:56.514Z,46.19
2022-07-29T22:18:01.157Z,46.25
2022-07-29T22:23:02.725Z,46.24
2022-07-29T22:28:06.687Z,46.55
2022-07-29T22:33:08.194Z,46.45
2022-07-29T22:38:13.193Z,46.60
2022-07-29T22:43:16.815Z,46.69
2022-07-29T22:48:19.930Z,46.98
2022-07-29T22:53:22.067Z,46.99
2022-07-29T22:58:23.611Z,47.03
2022-07-29T23:03:31.186Z,47.24
2022-07-29T23:08:36.222Z,47.39
2022-07-29T23:13:40.188Z,47.63
2022-07-29T23:18:48.826Z,47.71
2022-07-29T23:23:58.599Z,47.95
2022-07-29T23:29:00.221Z,47.92
2022-07-29T23:34:02.400Z,47.88
2022-07-29T23:39:04.116Z,48.33
2022-07-29T23:44:07.714Z,48.43
2022-07-29T23:49:13.878Z,48.50
2022-07-29T23:54:20.280Z,48.62
2022-07-29T23:59:21.854Z,48.57
